sensor_id;sensor_type;location;lat;lon;timestamp;pressure;altitude;pressure_sealevel;temperature;humidity
71149;BME280;59072;42.144;25.200;2023-05-22T00:00:07;99723.78;;;16.94;100.00
71149;BME280;59072;42.144;25.200;2023-05-22T00:02:33;99716.78;;;16.87;100.00
71149;BME280;59072;42.144;25.200;2023-05-22T00:05:04;99719.19;;;16.74;100.00
71149;BME280;59072;42.144;25.200;2023-05-22T00:07:30;99738.28;;;16.77;100.00
71149;BME280;59072;42.144;25.200;2023-05-22T00:09:56;99726.72;;;16.77;100.00
71149;BME280;59072;42.144;25.200;2023-05-22T00:12:21;99718.38;;;16.68;100.00
71149;BME280;59072;42.144;25.200;2023-05-22T00:14:46;99730.78;;;16.84;100.00
71149;BME280;59072;42.144;25.200;2023-05-22T00:17:12;99718.34;;;16.58;100.00
71149;BME280;59072;42.144;25.200;2023-05-22T00:19:39;99719.72;;;16.71;100.00
71149;BME280;59072;42.144;25.200;2023-05-22T00:22:04;99712.19;;;16.78;100.00
71149;BME280;59072;42.144;25.200;2023-05-22T00:24:30;99727.50;;;16.77;100.00
71149;BME280;59072;42.144;25.200;2023-05-22T00:26:56;99724.81;;;16.52;100.00
71149;BME280;59072;42.144;25.200;2023-05-22T00:29:22;99720.47;;;16.40;100.00
71149;BME280;59072;42.144;25.200;2023-05-22T00:31:47;99722.38;;;16.45;100.00
71149;BME280;59072;42.144;25.200;2023-05-22T00:34:13;99713.44;;;16.24;100.00
71149;BME280;59072;42.144;25.200;2023-05-22T00:36:38;99727.47;;;16.41;100.00
71149;BME280;59072;42.144;25.200;2023-05-22T00:39:04;99726.41;;;16.47;100.00
71149;BME280;59072;42.144;25.200;2023-05-22T00:41:30;99730.75;;;16.74;100.00
71149;BME280;59072;42.144;25.200;2023-05-22T00:43:58;99738.56;;;16.71;100.00
71149;BME280;59072;42.144;25.200;2023-05-22T00:46:24;99726.16;;;16.54;100.00
71149;BME280;59072;42.144;25.200;2023-05-22T00:48:50;99728.28;;;16.42;100.00
71149;BME280;59072;42.144;25.200;2023-05-22T00:51:21;99718.34;;;16.53;100.00
71149;BME280;59072;42.144;25.200;2023-05-22T00:53:47;99739.41;;;16.97;100.00
71149;BME280;59072;42.144;25.200;2023-05-22T00:56:14;99737.75;;;16.75;100.00
71149;BME280;59072;42.144;25.200;2023-05-22T00:58:40;99731.84;;;16.78;100.00
71149;BME280;59072;42.144;25.200;2023-05-22T01:01:06;99730.44;;;16.50;100.00
71149;BME280;59072;42.144;25.200;2023-05-22T01:03:35;99722.59;;;16.38;100.00
71149;BME280;59072;42.144;25.200;2023-05-22T01:06:02;99728.00;;;16.48;100.00
71149;BME280;59072;42.144;25.200;2023-05-22T01:08:27;99731.56;;;16.75;100.00
71149;BME280;59072;42.144;25.200;2023-05-22T01:11:03;99712.44;;;16.71;100.00
71149;BME280;59072;42.144;25.200;2023-05-22T01:14:20;99709.50;;;16.83;100.00
71149;BME280;59072;42.144;25.200;2023-05-22T01:17:19;99735.59;;;16.77;100.00
71149;BME280;59072;42.144;25.200;2023-05-22T01:28:41;99729.66;;;16.50;100.00
71149;BME280;59072;42.144;25.200;2023-05-22T01:31:16;99707.31;;;16.49;100.00
71149;BME280;59072;42.144;25.200;2023-05-22T01:34:16;99724.28;;;16.60;100.00
71149;BME280;59072;42.144;25.200;2023-05-22T01:36:36;99721.03;;;16.53;100.00
71149;BME280;59072;42.144;25.200;2023-05-22T01:39:02;99723.50;;;16.70;100.00
71149;BME280;59072;42.144;25.200;2023-05-22T01:41:31;99714.03;;;16.57;100.00
71149;BME280;59072;42.144;25.200;2023-05-22T01:43:57;99722.13;;;16.52;100.00
71149;BME280;59072;42.144;25.200;2023-05-22T01:46:26;99719.44;;;16.67;100.00
71149;BME280;59072;42.144;25.200;2023-05-22T01:48:52;99703.00;;;16.58;100.00
71149;BME280;59072;42.144;25.200;2023-05-22T01:51:24;99719.44;;;16.62;100.00
71149;BME280;59072;42.144;25.200;2023-05-22T01:54:03;99723.72;;;16.53;100.00
71149;BME280;59072;42.144;25.200;2023-05-22T01:56:45;99715.38;;;16.44;100.00
71149;BME280;59072;42.144;25.200;2023-05-22T01:59:25;99697.34;;;16.39;100.00
71149;BME280;59072;42.144;25.200;2023-05-22T02:01:57;99714.03;;;16.57;100.00
71149;BME280;59072;42.144;25.200;2023-05-22T02:04:26;99703.81;;;16.59;100.00
71149;BME280;59072;42.144;25.200;2023-05-22T02:06:52;99711.34;;;16.52;100.00
71149;BME280;59072;42.144;25.200;2023-05-22T02:09:20;99707.28;;;16.39;100.00
71149;BME280;59072;42.144;25.200;2023-05-22T02:11:47;99717.25;;;16.59;100.00
71149;BME280;59072;42.144;25.200;2023-05-22T02:14:14;99712.41;;;16.45;100.00
71149;BME280;59072;42.144;25.200;2023-05-22T02:16:40;99708.59;;;16.36;100.00
71149;BME280;59072;42.144;25.200;2023-05-22T02:19:06;99712.16;;;16.52;100.00
71149;BME280;59072;42.144;25.200;2023-05-22T02:21:35;99718.91;;;16.60;100.00
71149;BME280;59072;42.144;25.200;2023-05-22T02:24:01;99723.16;;;16.51;100.00
71149;BME280;59072;42.144;25.200;2023-05-22T02:26:27;99725.63;;;16.47;100.00
71149;BME280;59072;42.144;25.200;2023-05-22T02:28:52;99714.53;;;16.33;100.00
71149;BME280;59072;42.144;25.200;2023-05-22T02:31:17;99725.84;;;16.40;100.00
71149;BME280;59072;42.144;25.200;2023-05-22T02:33:43;99725.66;;;16.67;100.00
71149;BME280;59072;42.144;25.200;2023-05-22T02:36:09;99730.09;;;16.26;100.00
71149;BME280;59072;42.144;25.200;2023-05-22T02:38:37;99723.63;;;16.22;100.00
71149;BME280;59072;42.144;25.200;2023-05-22T02:41:03;99733.03;;;16.04;100.00
71149;BME280;59072;42.144;25.200;2023-05-22T02:43:28;99725.81;;;16.25;100.00
71149;BME280;59072;42.144;25.200;2023-05-22T02:45:53;99724.78;;;16.46;100.00
71149;BME280;59072;42.144;25.200;2023-05-22T02:48:19;99725.88;;;16.45;100.00
71149;BME280;59072;42.144;25.200;2023-05-22T02:50:44;99727.94;;;16.18;100.00
71149;BME280;59072;42.144;25.200;2023-05-22T02:53:13;99722.59;;;16.38;100.00
71149;BME280;59072;42.144;25.200;2023-05-22T02:55:40;99721.84;;;16.43;100.00
71149;BME280;59072;42.144;25.200;2023-05-22T02:58:06;99725.56;;;16.26;100.00
71149;BME280;59072;42.144;25.200;2023-05-22T03:00:38;99705.88;;;16.11;100.00
71149;BME280;59072;42.144;25.200;2023-05-22T03:03:04;99726.94;;;16.44;100.00
71149;BME280;59072;42.144;25.200;2023-05-22T03:05:30;99718.06;;;16.54;100.00
71149;BME280;59072;42.144;25.200;2023-05-22T03:07:56;99715.13;;;16.56;100.00
71149;BME280;59072;42.144;25.200;2023-05-22T03:10:22;99716.16;;;16.44;100.00
71149;BME280;59072;42.144;25.200;2023-05-22T03:12:48;99715.94;;;16.51;100.00
71149;BME280;59072;42.144;25.200;2023-05-22T03:15:16;99698.13;;;16.35;100.00
71149;BME280;59072;42.144;25.200;2023-05-22T03:17:42;99713.78;;;16.53;100.00
71149;BME280;59072;42.144;25.200;2023-05-22T03:20:07;99723.19;;;16.56;100.00
71149;BME280;59072;42.144;25.200;2023-05-22T03:22:33;99710.53;;;16.51;100.00
71149;BME280;59072;42.144;25.200;2023-05-22T03:24:58;99714.81;;;16.42;100.00
71149;BME280;59072;42.144;25.200;2023-05-22T03:27:24;99720.69;;;16.18;100.00
71149;BME280;59072;42.144;25.200;2023-05-22T03:29:49;99722.09;;;16.41;100.00
71149;BME280;59072;42.144;25.200;2023-05-22T03:32:16;99717.75;;;16.25;100.00
71149;BME280;59072;42.144;25.200;2023-05-22T03:34:41;99717.22;;;16.38;100.00
71149;BME280;59072;42.144;25.200;2023-05-22T03:37:07;99708.63;;;16.46;100.00
71149;BME280;59072;42.144;25.200;2023-05-22T03:39:34;99700.00;;;16.44;100.00
71149;BME280;59072;42.144;25.200;2023-05-22T03:41:59;99721.03;;;16.58;100.00
71149;BME280;59072;42.144;25.200;2023-05-22T03:44:25;99704.59;;;16.44;100.00
71149;BME280;59072;42.144;25.200;2023-05-22T03:46:51;99702.19;;;16.63;100.00
71149;BME280;59072;42.144;25.200;2023-05-22T03:49:16;99709.72;;;16.61;100.00
71149;BME280;59072;42.144;25.200;2023-05-22T03:51:42;99717.25;;;16.59;100.00
71149;BME280;59072;42.144;25.200;2023-05-22T03:54:07;99717.34;;;16.84;100.00
71149;BME280;59072;42.144;25.200;2023-05-22T03:56:33;99716.47;;;16.79;100.00
71149;BME280;59072;42.144;25.200;2023-05-22T03:58:58;99721.38;;;16.92;100.00
71149;BME280;59072;42.144;25.200;2023-05-22T04:01:24;99716.78;;;17.03;100.00
71149;BME280;59072;42.144;25.200;2023-05-22T04:03:51;99723.25;;;17.07;100.00
71149;BME280;59072;42.144;25.200;2023-05-22T04:06:16;99724.34;;;16.91;100.00
71149;BME280;59072;42.144;25.200;2023-05-22T04:08:46;99723.25;;;16.92;100.00
71149;BME280;59072;42.144;25.200;2023-05-22T04:11:12;99726.97;;;16.65;100.00
71149;BME280;59072;42.144;25.200;2023-05-22T04:13:43;99726.50;;;16.99;100.00
71149;BME280;59072;42.144;25.200;2023-05-22T04:16:08;99730.53;;;16.81;100.00
71149;BME280;59072;42.144;25.200;2023-05-22T04:18:34;99719.50;;;16.93;100.00
71149;BME280;59072;42.144;25.200;2023-05-22T04:21:00;99725.94;;;16.92;100.00
71149;BME280;59072;42.144;25.200;2023-05-22T04:23:25;99716.19;;;16.75;100.00
71149;BME280;59072;42.144;25.200;2023-05-22T04:25:51;99726.75;;;16.97;100.00
71149;BME280;59072;42.144;25.200;2023-05-22T04:28:16;99712.16;;;16.73;100.00
71149;BME280;59072;42.144;25.200;2023-05-22T04:30:43;99712.22;;;16.88;100.00
71149;BME280;59072;42.144;25.200;2023-05-22T04:33:08;99727.56;;;17.03;100.00
71149;BME280;59072;42.144;25.200;2023-05-22T04:35:34;99720.56;;;17.12;100.00
71149;BME280;59072;42.144;25.200;2023-05-22T04:38:00;99729.19;;;17.24;100.00
71149;BME280;59072;42.144;25.200;2023-05-22T04:40:30;99732.66;;;17.30;100.00
71149;BME280;59072;42.144;25.200;2023-05-22T04:42:58;99735.63;;;17.39;100.00
71149;BME280;59072;42.144;25.200;2023-05-22T04:45:28;99728.91;;;17.21;100.00
71149;BME280;59072;42.144;25.200;2023-05-22T04:47:54;99737.78;;;17.42;100.00
71149;BME280;59072;42.144;25.200;2023-05-22T04:50:20;99741.00;;;17.59;100.00
71149;BME280;59072;42.144;25.200;2023-05-22T04:52:46;99741.53;;;17.56;100.00
71149;BME280;59072;42.144;25.200;2023-05-22T04:55:12;99732.91;;;17.54;100.00
71149;BME280;59072;42.144;25.200;2023-05-22T04:57:38;99732.91;;;17.44;100.00
71149;BME280;59072;42.144;25.200;2023-05-22T05:00:05;99757.13;;;17.64;100.00
71149;BME280;59072;42.144;25.200;2023-05-22T05:02:31;99752.53;;;17.91;100.00
71149;BME280;59072;42.144;25.200;2023-05-22T05:04:56;99751.94;;;17.94;100.00
71149;BME280;59072;42.144;25.200;2023-05-22T05:07:22;99755.44;;;17.99;100.00
71149;BME280;59072;42.144;25.200;2023-05-22T05:09:48;99759.78;;;17.95;100.00
71149;BME280;59072;42.144;25.200;2023-05-22T05:12:14;99754.66;;;17.99;100.00
71149;BME280;59072;42.144;25.200;2023-05-22T05:14:39;99755.66;;;18.13;100.00
71149;BME280;59072;42.144;25.200;2023-05-22T05:17:05;99760.25;;;18.13;100.00
71149;BME280;59072;42.144;25.200;2023-05-22T05:19:30;99760.22;;;18.23;100.00
71149;BME280;59072;42.144;25.200;2023-05-22T05:21:56;99763.44;;;18.25;100.00
71149;BME280;59072;42.144;25.200;2023-05-22T05:24:21;99773.47;;;18.14;100.00
71149;BME280;59072;42.144;25.200;2023-05-22T05:26:48;99747.84;;;18.17;100.00
71149;BME280;59072;42.144;25.200;2023-05-22T05:29:14;99766.31;;;18.44;100.00
71149;BME280;59072;42.144;25.200;2023-05-22T05:31:39;99769.44;;;18.66;100.00
71149;BME280;59072;42.144;25.200;2023-05-22T05:34:05;99771.00;;;18.73;100.00
71149;BME280;59072;42.144;25.200;2023-05-22T05:36:30;99770.16;;;18.77;100.00
71149;BME280;59072;42.144;25.200;2023-05-22T05:38:56;99762.91;;;18.73;100.00
71149;BME280;59072;42.144;25.200;2023-05-22T05:41:23;99773.13;;;18.86;100.00
71149;BME280;59072;42.144;25.200;2023-05-22T05:43:48;99778.47;;;18.96;100.00
71149;BME280;59072;42.144;25.200;2023-05-22T05:46:16;99775.44;;;18.98;100.00
71149;BME280;59072;42.144;25.200;2023-05-22T05:48:42;99773.78;;;19.07;100.00
71149;BME280;59072;42.144;25.200;2023-05-22T05:51:08;99785.13;;;19.04;100.00
71149;BME280;59072;42.144;25.200;2023-05-22T05:53:33;99783.00;;;19.01;100.00
71149;BME280;59072;42.144;25.200;2023-05-22T05:56:01;99791.75;;;19.22;100.00
71149;BME280;59072;42.144;25.200;2023-05-22T05:58:27;99796.03;;;19.28;97.95
71149;BME280;59072;42.144;25.200;2023-05-22T06:00:52;99793.59;;;19.26;98.76
71149;BME280;59072;42.144;25.200;2023-05-22T06:03:18;99801.19;;;19.24;99.76
71149;BME280;59072;42.144;25.200;2023-05-22T06:05:43;99808.66;;;19.38;96.66
71149;BME280;59072;42.144;25.200;2023-05-22T06:08:10;99789.16;;;19.41;97.26
71149;BME280;59072;42.144;25.200;2023-05-22T06:10:37;99802.44;;;19.66;96.17
71149;BME280;59072;42.144;25.200;2023-05-22T06:13:02;99811.03;;;19.79;94.81
71149;BME280;59072;42.144;25.200;2023-05-22T06:15:28;99814.22;;;19.86;94.75
71149;BME280;59072;42.144;25.200;2023-05-22T06:17:54;99816.03;;;19.91;94.42
71149;BME280;59072;42.144;25.200;2023-05-22T06:20:20;99818.06;;;19.80;92.19
71149;BME280;59072;42.144;25.200;2023-05-22T06:22:46;99809.47;;;19.67;91.50
71149;BME280;59072;42.144;25.200;2023-05-22T06:25:11;99813.47;;;20.04;93.08
71149;BME280;59072;42.144;25.200;2023-05-22T06:27:36;99814.81;;;20.26;87.61
71149;BME280;59072;42.144;25.200;2023-05-22T06:30:02;99817.28;;;20.46;86.45
71149;BME280;59072;42.144;25.200;2023-05-22T06:32:28;99820.13;;;20.55;82.47
71149;BME280;59072;42.144;25.200;2023-05-22T06:34:53;99817.00;;;20.24;81.50
71149;BME280;59072;42.144;25.200;2023-05-22T06:37:18;99819.59;;;20.34;83.94
71149;BME280;59072;42.144;25.200;2023-05-22T06:39:44;99813.34;;;20.58;83.32
71149;BME280;59072;42.144;25.200;2023-05-22T06:42:09;99815.06;;;20.92;79.83
71149;BME280;59072;42.144;25.200;2023-05-22T06:44:35;99820.38;;;21.16;76.01
71149;BME280;59072;42.144;25.200;2023-05-22T06:47:00;99816.53;;;21.03;73.03
71149;BME280;59072;42.144;25.200;2023-05-22T06:49:26;99822.97;;;21.07;73.47
71149;BME280;59072;42.144;25.200;2023-05-22T06:51:51;99804.38;;;21.00;71.01
71149;BME280;59072;42.144;25.200;2023-05-22T06:54:17;99826.72;;;21.11;75.01
71149;BME280;59072;42.144;25.200;2023-05-22T06:56:44;99824.25;;;21.48;75.60
71149;BME280;59072;42.144;25.200;2023-05-22T06:59:10;99826.22;;;21.42;72.61
71149;BME280;59072;42.144;25.200;2023-05-22T07:01:38;99826.75;;;21.44;69.38
71149;BME280;59072;42.144;25.200;2023-05-22T07:04:03;99821.63;;;21.23;70.30
71149;BME280;59072;42.144;25.200;2023-05-22T07:06:30;99824.06;;;21.25;74.22
71149;BME280;59072;42.144;25.200;2023-05-22T07:09:03;99813.53;;;21.56;72.05
71149;BME280;59072;42.144;25.200;2023-05-22T07:11:29;99831.03;;;21.64;73.55
71149;BME280;59072;42.144;25.200;2023-05-22T07:13:55;99820.38;;;21.67;71.39
71149;BME280;59072;42.144;25.200;2023-05-22T07:16:21;99834.16;;;21.85;67.06
71149;BME280;59072;42.144;25.200;2023-05-22T07:18:47;99831.25;;;21.81;68.34
71149;BME280;59072;42.144;25.200;2023-05-22T07:21:12;99824.63;;;21.87;66.08
71149;BME280;59072;42.144;25.200;2023-05-22T07:23:38;99834.59;;;22.20;66.60
71149;BME280;59072;42.144;25.200;2023-05-22T07:26:03;99831.09;;;22.19;64.76
71149;BME280;59072;42.144;25.200;2023-05-22T07:28:32;99821.00;;;22.06;62.57
71149;BME280;59072;42.144;25.200;2023-05-22T07:30:57;99828.69;;;22.45;65.14
71149;BME280;59072;42.144;25.200;2023-05-22T07:33:24;99825.34;;;22.62;64.22
71149;BME280;59072;42.144;25.200;2023-05-22T07:35:49;99839.13;;;22.66;63.93
71149;BME280;59072;42.144;25.200;2023-05-22T07:38:16;99834.28;;;22.63;59.95
71149;BME280;59072;42.144;25.200;2023-05-22T07:40:41;99833.19;;;22.50;60.92
71149;BME280;59072;42.144;25.200;2023-05-22T07:43:07;99832.72;;;22.84;59.88
71149;BME280;59072;42.144;25.200;2023-05-22T07:45:32;99830.19;;;23.02;59.95
71149;BME280;59072;42.144;25.200;2023-05-22T07:47:58;99832.34;;;23.36;58.47
71149;BME280;59072;42.144;25.200;2023-05-22T07:50:24;99834.13;;;23.41;57.78
71149;BME280;59072;42.144;25.200;2023-05-22T07:52:51;99827.81;;;23.77;53.21
71149;BME280;59072;42.144;25.200;2023-05-22T07:55:16;99832.00;;;23.83;54.83
71149;BME280;59072;42.144;25.200;2023-05-22T07:57:42;99821.06;;;24.14;51.57
71149;BME280;59072;42.144;25.200;2023-05-22T08:00:08;99821.38;;;24.13;54.50
71149;BME280;59072;42.144;25.200;2023-05-22T08:02:34;99826.28;;;24.42;51.50
71149;BME280;59072;42.144;25.200;2023-05-22T08:05:00;99824.06;;;23.95;50.60
71149;BME280;59072;42.144;25.200;2023-05-22T08:07:26;99822.81;;;23.70;53.04
71149;BME280;59072;42.144;25.200;2023-05-22T08:09:51;99810.03;;;23.48;54.48
71149;BME280;59072;42.144;25.200;2023-05-22T08:12:17;99819.53;;;23.37;54.20
71149;BME280;59072;42.144;25.200;2023-05-22T08:14:42;99812.75;;;23.48;52.48
71149;BME280;59072;42.144;25.200;2023-05-22T08:17:08;99823.00;;;23.51;51.68
71149;BME280;59072;42.144;25.200;2023-05-22T08:19:33;99817.88;;;23.04;52.82
71149;BME280;59072;42.144;25.200;2023-05-22T08:21:58;99811.13;;;23.24;51.21
71149;BME280;59072;42.144;25.200;2023-05-22T08:24:24;99814.34;;;23.49;54.44
71149;BME280;59072;42.144;25.200;2023-05-22T08:26:53;99823.00;;;23.29;51.80
71149;BME280;59072;42.144;25.200;2023-05-22T08:29:19;99819.19;;;23.30;49.48
71149;BME280;59072;42.144;25.200;2023-05-22T08:31:45;99828.50;;;23.15;50.93
71149;BME280;59072;42.144;25.200;2023-05-22T08:34:10;99830.06;;;23.30;51.13
71149;BME280;59072;42.144;25.200;2023-05-22T08:36:35;99828.38;;;23.42;48.72
71149;BME280;59072;42.144;25.200;2023-05-22T08:39:01;99820.69;;;23.98;50.82
71149;BME280;59072;42.144;25.200;2023-05-22T08:41:28;99831.47;;;24.03;47.31
71149;BME280;59072;42.144;25.200;2023-05-22T08:43:53;99832.59;;;24.60;48.45
71149;BME280;59072;42.144;25.200;2023-05-22T08:46:20;99833.91;;;24.71;45.66
71149;BME280;59072;42.144;25.200;2023-05-22T08:48:50;99835.19;;;24.74;45.53
71149;BME280;59072;42.144;25.200;2023-05-22T08:51:18;99831.56;;;24.38;47.01
71149;BME280;59072;42.144;25.200;2023-05-22T08:53:44;99826.91;;;24.39;47.82
71149;BME280;59072;42.144;25.200;2023-05-22T08:56:11;99816.81;;;24.39;50.51
71149;BME280;59072;42.144;25.200;2023-05-22T08:58:36;99818.25;;;24.28;48.03
71149;BME280;59072;42.144;25.200;2023-05-22T09:01:03;99824.94;;;24.13;50.34
71149;BME280;59072;42.144;25.200;2023-05-22T09:03:30;99807.16;;;24.24;50.66
71149;BME280;59072;42.144;25.200;2023-05-22T09:05:57;99809.84;;;24.07;51.00
71149;BME280;59072;42.144;25.200;2023-05-22T09:08:23;99814.13;;;23.99;49.63
71149;BME280;59072;42.144;25.200;2023-05-22T09:10:49;99799.38;;;24.00;51.06
71149;BME280;59072;42.144;25.200;2023-05-22T09:13:30;99813.69;;;24.15;50.20
71149;BME280;59072;42.144;25.200;2023-05-22T09:16:10;99805.13;;;23.90;48.79
71149;BME280;59072;42.144;25.200;2023-05-22T09:18:39;99813.69;;;24.06;49.99
71149;BME280;59072;42.144;25.200;2023-05-22T09:21:06;99810.66;;;24.08;51.42
71149;BME280;59072;42.144;25.200;2023-05-22T09:23:32;99803.56;;;24.06;50.94
71149;BME280;59072;42.144;25.200;2023-05-22T09:25:59;99792.97;;;23.96;51.32
71149;BME280;59072;42.144;25.200;2023-05-22T09:28:25;99812.31;;;24.43;49.12
71149;BME280;59072;42.144;25.200;2023-05-22T09:30:52;99808.72;;;24.65;49.44
71149;BME280;59072;42.144;25.200;2023-05-22T09:33:22;99796.03;;;24.78;48.52
71149;BME280;59072;42.144;25.200;2023-05-22T09:35:50;99810.81;;;24.86;47.74
71149;BME280;59072;42.144;25.200;2023-05-22T09:38:16;99798.94;;;24.99;49.51
71149;BME280;59072;42.144;25.200;2023-05-22T09:40:42;99797.97;;;24.86;47.53
71149;BME280;59072;42.144;25.200;2023-05-22T09:43:11;99804.06;;;25.18;44.47
71149;BME280;59072;42.144;25.200;2023-05-22T09:45:41;99802.16;;;24.75;43.09
71149;BME280;59072;42.144;25.200;2023-05-22T09:48:08;99802.63;;;25.03;45.09
71149;BME280;59072;42.144;25.200;2023-05-22T09:50:35;99789.00;;;25.03;48.46
71149;BME280;59072;42.144;25.200;2023-05-22T09:53:02;99800.31;;;24.44;46.90
71149;BME280;59072;42.144;25.200;2023-05-22T09:55:28;99800.94;;;24.41;46.20
71149;BME280;59072;42.144;25.200;2023-05-22T09:57:55;99803.41;;;24.86;43.53
71149;BME280;59072;42.144;25.200;2023-05-22T10:00:21;99795.06;;;25.44;42.30
71149;BME280;59072;42.144;25.200;2023-05-22T10:03:01;99792.00;;;25.84;38.29
71149;BME280;59072;42.144;25.200;2023-05-22T10:05:30;99790.16;;;26.35;40.03
71149;BME280;59072;42.144;25.200;2023-05-22T10:08:02;99782.88;;;25.80;42.15
71149;BME280;59072;42.144;25.200;2023-05-22T10:10:29;99796.88;;;25.70;40.65
71149;BME280;59072;42.144;25.200;2023-05-22T10:13:00;99795.03;;;25.53;41.56
71149;BME280;59072;42.144;25.200;2023-05-22T10:15:27;99782.47;;;25.60;42.74
71149;BME280;59072;42.144;25.200;2023-05-22T10:17:54;99787.38;;;25.29;43.40
71149;BME280;59072;42.144;25.200;2023-05-22T10:20:20;99776.06;;;25.56;40.09
71149;BME280;59072;42.144;25.200;2023-05-22T10:22:46;99778.19;;;25.89;41.50
71149;BME280;59072;42.144;25.200;2023-05-22T10:25:13;99777.88;;;25.82;39.33
71149;BME280;59072;42.144;25.200;2023-05-22T10:27:39;99778.56;;;26.38;41.46
71149;BME280;59072;42.144;25.200;2023-05-22T10:33:05;99767.25;;;26.49;40.74
71149;BME280;59072;42.144;25.200;2023-05-22T10:35:45;99761.75;;;26.91;36.68
71149;BME280;59072;42.144;25.200;2023-05-22T10:38:25;99775.03;;;27.01;37.95
71149;BME280;59072;42.144;25.200;2023-05-22T10:40:56;99773.91;;;26.39;36.82
71149;BME280;59072;42.144;25.200;2023-05-22T10:43:22;99773.69;;;27.07;36.15
71149;BME280;59072;42.144;25.200;2023-05-22T10:45:47;99764.16;;;26.29;35.58
71149;BME280;59072;42.144;25.200;2023-05-22T10:48:13;99763.81;;;26.60;35.25
71149;BME280;59072;42.144;25.200;2023-05-22T10:50:41;99771.31;;;27.39;35.33
71149;BME280;59072;42.144;25.200;2023-05-22T10:55:51;99762.50;;;27.91;35.21
71149;BME280;59072;42.144;25.200;2023-05-22T10:58:32;99745.31;;;27.82;35.19
71149;BME280;59072;42.144;25.200;2023-05-22T11:03:59;99751.72;;;28.11;32.75
71149;BME280;59072;42.144;25.200;2023-05-22T11:06:45;99725.81;;;28.08;34.84
71149;BME280;59072;42.144;25.200;2023-05-22T11:09:27;99738.38;;;28.09;33.26
71149;BME280;59072;42.144;25.200;2023-05-22T11:12:18;99730.72;;;28.02;33.41
71149;BME280;59072;42.144;25.200;2023-05-22T11:15:05;99716.00;;;27.95;36.14
71149;BME280;59072;42.144;25.200;2023-05-22T11:17:40;99715.00;;;27.99;34.28
71149;BME280;59072;42.144;25.200;2023-05-22T11:20:20;99720.69;;;27.94;34.11
71149;BME280;59072;42.144;25.200;2023-05-22T11:25:17;99715.19;;;27.45;34.61
71149;BME280;59072;42.144;25.200;2023-05-22T11:27:43;99719.88;;;27.69;35.21
71149;BME280;59072;42.144;25.200;2023-05-22T11:30:10;99730.88;;;28.47;33.66
71149;BME280;59072;42.144;25.200;2023-05-22T11:32:37;99732.28;;;28.40;32.33
71149;BME280;59072;42.144;25.200;2023-05-22T11:35:03;99724.25;;;29.04;32.01
71149;BME280;59072;42.144;25.200;2023-05-22T11:37:40;99725.44;;;28.34;33.91
71149;BME280;59072;42.144;25.200;2023-05-22T11:40:07;99726.41;;;28.82;32.57
71149;BME280;59072;42.144;25.200;2023-05-22T11:42:34;99721.13;;;29.18;32.67
71149;BME280;59072;42.144;25.200;2023-05-22T11:44:59;99725.56;;;29.86;31.13
71149;BME280;59072;42.144;25.200;2023-05-22T11:47:28;99726.28;;;28.91;32.42
71149;BME280;59072;42.144;25.200;2023-05-22T11:49:55;99717.38;;;29.10;31.25
71149;BME280;59072;42.144;25.200;2023-05-22T11:52:21;99715.44;;;29.11;33.85
71149;BME280;59072;42.144;25.200;2023-05-22T11:54:50;99714.97;;;29.09;33.19
71149;BME280;59072;42.144;25.200;2023-05-22T11:57:16;99712.66;;;28.67;33.78
71149;BME280;59072;42.144;25.200;2023-05-22T11:59:45;99722.09;;;28.81;33.04
71149;BME280;59072;42.144;25.200;2023-05-22T12:02:18;99704.06;;;28.68;33.78
71149;BME280;59072;42.144;25.200;2023-05-22T12:04:44;99715.84;;;28.28;34.27
71149;BME280;59072;42.144;25.200;2023-05-22T12:07:09;99704.94;;;27.67;34.55
71149;BME280;59072;42.144;25.200;2023-05-22T12:09:38;99714.19;;;27.87;36.94
71149;BME280;59072;42.144;25.200;2023-05-22T12:12:04;99703.28;;;28.15;34.76
71149;BME280;59072;42.144;25.200;2023-05-22T12:14:30;99709.84;;;27.98;36.47
71149;BME280;59072;42.144;25.200;2023-05-22T12:17:00;99703.28;;;28.15;38.26
71149;BME280;59072;42.144;25.200;2023-05-22T12:19:26;99710.84;;;27.56;37.63
71149;BME280;59072;42.144;25.200;2023-05-22T12:21:52;99709.47;;;27.50;38.92
71149;BME280;59072;42.144;25.200;2023-05-22T12:24:18;99698.09;;;27.73;37.86
71149;BME280;59072;42.144;25.200;2023-05-22T12:26:51;99696.41;;;28.33;37.59
71149;BME280;59072;42.144;25.200;2023-05-22T12:29:17;99683.69;;;28.41;37.60
71149;BME280;59072;42.144;25.200;2023-05-22T12:31:43;99700.47;;;28.80;36.52
71149;BME280;59072;42.144;25.200;2023-05-22T12:34:10;99691.22;;;27.79;39.35
71149;BME280;59072;42.144;25.200;2023-05-22T12:36:40;99693.88;;;27.17;40.83
71149;BME280;59072;42.144;25.200;2023-05-22T12:39:16;99697.78;;;27.16;40.70
71149;BME280;59072;42.144;25.200;2023-05-22T12:41:43;99706.94;;;26.87;41.82
71149;BME280;59072;42.144;25.200;2023-05-22T12:44:08;99704.22;;;26.66;44.66
71149;BME280;59072;42.144;25.200;2023-05-22T12:46:34;99705.38;;;26.44;44.80
71149;BME280;59072;42.144;25.200;2023-05-22T12:49:00;99706.56;;;26.34;45.31
71149;BME280;59072;42.144;25.200;2023-05-22T12:51:27;99710.72;;;25.90;46.13
71149;BME280;59072;42.144;25.200;2023-05-22T12:53:59;99715.28;;;25.30;47.01
71149;BME280;59072;42.144;25.200;2023-05-22T12:56:26;99712.63;;;24.86;53.34
71149;BME280;59072;42.144;25.200;2023-05-22T12:58:51;99719.69;;;24.61;56.42
71149;BME280;59072;42.144;25.200;2023-05-22T13:01:16;99715.00;;;24.18;54.84
71149;BME280;59072;42.144;25.200;2023-05-22T13:03:42;99708.56;;;24.05;55.68
71149;BME280;59072;42.144;25.200;2023-05-22T13:06:08;99722.13;;;23.16;64.82